Time;durP1;ratioP1;P1;durP2;ratioP2;P2;SDS_P1;SDS_P2;PMS_P1;PMS_P2;Temp;Humidity;BMP_temperature;BMP_pressure;BME280_temperature;BME280_humidity;BME280_pressure;Samples;Min_cycle;Max_cycle;Signal;HPM_P1;HPM_P2
2022/07/08 04:17:54;;;;;;;;;;;24.80;56.40;;;;;;5454948;23;19925;-81
2022/07/08 04:20:21;;;;;;;;;;;24.80;56.40;;;;;;5021609;28;19960;-81
2022/07/08 04:22:48;;;;;;;;;;;24.80;56.40;;;;;;5020798;28;20016;-80
2022/07/08 04:25:15;;;;;;;;;;;24.80;56.40;;;;;;5020106;28;20359;-80
2022/07/08 04:27:41;;;;;;;;;;;24.80;56.40;;;;;;5017293;28;19979;-77
2022/07/08 04:33:15;;;;;;;;;;;24.80;56.40;;;;;;5017817;28;20276;-79
2022/07/08 04:35:42;;;;;;;;;;;24.80;56.50;;;;;;5017938;28;20019;-78
2022/07/08 04:38:09;;;;;;;;;;;24.80;56.50;;;;;;5015525;28;20440;-77
2022/07/08 04:40:35;;;;;;;;;;;24.80;56.50;;;;;;5014952;28;20296;-77
2022/07/08 04:43:02;;;;;;;;;;;24.80;56.40;;;;;;5015255;28;19925;-77
2022/07/08 04:45:29;;;;;;;;;;;24.80;56.40;;;;;;5016139;28;20340;-77
2022/07/08 04:47:55;;;;;;;;;;;24.80;56.30;;;;;;5015012;28;20016;-77
2022/07/08 04:50:23;;;;;;;;;;;24.80;55.90;;;;;;5015305;28;20012;-78
2022/07/08 04:52:50;;;;;;;;;;;24.70;55.80;;;;;;5016518;28;19931;-78
2022/07/08 04:55:29;;;;;;;;;;;24.70;55.70;;;;;;5016840;28;19964;-79
2022/07/08 04:57:57;;;;;;;;;;;24.60;54.90;;;;;;5014397;28;20025;-78
2022/07/08 05:00:23;;;;;;;;;;;24.50;54.60;;;;;;5014760;28;19933;-78
2022/07/08 05:02:50;;;;;;;;;;;24.50;54.40;;;;;;5014593;28;19925;-77
2022/07/08 05:05:17;;;;;;;;;;;24.50;54.20;;;;;;5014445;28;20016;-77
2022/07/08 05:07:45;;;;;;;;;;;24.50;53.80;;;;;;5014399;28;19948;-77
2022/07/08 05:10:12;;;;;;;;;;;24.40;53.30;;;;;;5017900;28;19932;-80
2022/07/08 05:12:38;;;;;;;;;;;24.40;53.70;;;;;;5019189;28;19992;-81
2022/07/08 05:15:05;;;;;;;;;;;24.40;52.90;;;;;;5018945;28;20342;-81
2022/07/08 05:17:32;;;;;;;;;;;24.40;52.70;;;;;;5020299;28;19965;-82
2022/07/08 05:19:59;;;;;;;;;;;24.40;52.50;;;;;;5020002;28;19926;-81
2022/07/08 05:22:25;;;;;;;;;;;24.40;52.30;;;;;;5020201;28;20025;-84
2022/07/08 05:24:54;;;;;;;;;;;24.40;52.10;;;;;;5020500;28;19933;-81
2022/07/08 05:27:21;;;;;;;;;;;24.50;52.00;;;;;;5019037;28;19933;-83
2022/07/08 05:29:48;;;;;;;;;;;24.50;51.90;;;;;;5015400;28;19925;-85
2022/07/08 05:32:14;;;;;;;;;;;24.50;51.70;;;;;;5015076;28;19929;-85
2022/07/08 05:34:44;;;;;;;;;;;24.50;51.60;;;;;;5015705;28;19925;-84
2022/07/08 05:37:11;;;;;;;;;;;24.50;51.50;;;;;;5014987;28;19952;-84
2022/07/08 05:39:37;;;;;;;;;;;24.50;51.30;;;;;;5015772;28;19960;-84
2022/07/08 05:42:06;;;;;;;;;;;24.50;51.20;;;;;;5015599;28;20020;-84
2022/07/08 05:44:33;;;;;;;;;;;24.50;51.00;;;;;;5015443;28;19932;-84
2022/07/08 05:46:59;;;;;;;;;;;24.50;50.80;;;;;;5015016;28;20029;-84
2022/07/08 05:49:26;;;;;;;;;;;24.60;50.90;;;;;;5014644;28;19979;-84
2022/07/08 05:51:53;;;;;;;;;;;24.60;50.90;;;;;;5015299;28;20373;-83
2022/07/08 05:54:20;;;;;;;;;;;24.60;50.90;;;;;;5017548;28;19972;-83
2022/07/08 05:56:46;;;;;;;;;;;24.60;50.90;;;;;;5021219;28;19925;-84
2022/07/08 05:59:14;;;;;;;;;;;24.60;50.90;;;;;;5015983;28;19925;-83
2022/07/08 06:01:41;;;;;;;;;;;24.60;50.90;;;;;;5016427;28;20016;-83
2022/07/08 06:04:08;;;;;;;;;;;24.60;50.60;;;;;;5015080;28;19980;-83
2022/07/08 06:06:35;;;;;;;;;;;24.60;50.50;;;;;;5014932;28;20020;-83
2022/07/08 06:09:01;;;;;;;;;;;24.60;50.40;;;;;;5014820;28;20295;-83
2022/07/08 06:11:28;;;;;;;;;;;24.60;50.30;;;;;;5015635;28;19972;-83
2022/07/08 06:13:55;;;;;;;;;;;24.60;50.20;;;;;;5017318;28;19980;-83
2022/07/08 06:16:23;;;;;;;;;;;24.70;50.20;;;;;;5017883;28;20008;-82
2022/07/08 06:18:50;;;;;;;;;;;24.70;50.10;;;;;;5018395;28;19976;-86
2022/07/08 06:21:17;;;;;;;;;;;24.60;49.90;;;;;;5014045;28;19952;-86
2022/07/08 06:23:44;;;;;;;;;;;24.70;49.90;;;;;;5013963;28;19925;-86
2022/07/08 06:26:11;;;;;;;;;;;24.70;49.70;;;;;;5014131;28;19932;-86
2022/07/08 06:28:38;;;;;;;;;;;24.70;49.70;;;;;;5013765;28;19925;-87
2022/07/08 06:31:05;;;;;;;;;;;24.70;49.60;;;;;;5014096;28;20016;-86
2022/07/08 06:33:33;;;;;;;;;;;24.70;49.50;;;;;;5016801;28;19951;-86
2022/07/08 06:35:59;;;;;;;;;;;24.70;49.40;;;;;;5017628;28;19969;-85
2022/07/08 06:38:26;;;;;;;;;;;24.70;49.30;;;;;;5017153;28;20020;-85
2022/07/08 06:40:53;;;;;;;;;;;24.70;49.30;;;;;;5017422;28;20015;-85
2022/07/08 06:43:19;;;;;;;;;;;24.70;49.20;;;;;;5017581;28;19925;-85
2022/07/08 06:45:46;;;;;;;;;;;24.70;49.10;;;;;;5016975;28;19925;-85
2022/07/08 06:48:13;;;;;;;;;;;24.70;49.00;;;;;;5017234;28;20349;-86
2022/07/08 06:50:41;;;;;;;;;;;24.70;49.00;;;;;;5017300;28;19934;-86
2022/07/08 06:53:08;;;;;;;;;;;24.70;48.90;;;;;;5017191;28;20020;-85
2022/07/08 06:55:35;;;;;;;;;;;24.70;48.80;;;;;;5017343;28;19925;-86
2022/07/08 06:58:01;;;;;;;;;;;24.70;48.80;;;;;;5017193;28;19925;-85
2022/07/08 07:00:28;;;;;;;;;;;24.70;48.70;;;;;;5017062;28;20008;-85
2022/07/08 07:02:55;;;;;;;;;;;24.70;48.60;;;;;;5017091;28;20293;-86
2022/07/08 07:05:21;;;;;;;;;;;24.70;48.60;;;;;;5016788;28;20440;-86
2022/07/08 07:07:50;;;;;;;;;;;24.70;48.50;;;;;;5016991;28;20088;-86
2022/07/08 07:10:16;;;;;;;;;;;24.70;48.50;;;;;;5016664;28;19977;-86
2022/07/08 07:12:43;;;;;;;;;;;24.70;48.40;;;;;;5016968;28;20274;-85
2022/07/08 07:15:10;;;;;;;;;;;24.80;48.40;;;;;;5016797;28;19926;-85
2022/07/08 07:17:40;;;;;;;;;;;24.80;48.40;;;;;;5016861;28;19929;-86
2022/07/08 07:20:07;;;;;;;;;;;24.70;48.20;;;;;;5016553;28;20393;-85
2022/07/08 07:22:34;;;;;;;;;;;24.70;48.10;;;;;;5016749;28;19976;-85
2022/07/08 07:25:02;;;;;;;;;;;24.70;48.10;;;;;;5016412;28;19991;-86
2022/07/08 07:27:29;;;;;;;;;;;24.70;48.00;;;;;;5016388;28;19925;-86
2022/07/08 07:29:55;;;;;;;;;;;24.80;48.10;;;;;;5016308;28;20016;-86
2022/07/08 07:32:22;;;;;;;;;;;24.70;47.90;;;;;;5016440;28;20020;-86
2022/07/08 07:34:49;;;;;;;;;;;24.80;48.00;;;;;;5016113;28;19936;-86
2022/07/08 07:37:15;;;;;;;;;;;24.80;47.90;;;;;;5016058;28;19956;-87
2022/07/08 07:39:42;;;;;;;;;;;24.80;47.90;;;;;;5016467;28;20015;-87
2022/07/08 07:42:10;;;;;;;;;;;24.70;47.70;;;;;;5016441;28;20016;-87
2022/07/08 07:44:37;;;;;;;;;;;24.80;47.80;;;;;;5016302;28;19933;-87
2022/07/08 07:47:04;;;;;;;;;;;24.80;47.70;;;;;;5017283;28;19992;-87
2022/07/08 07:49:30;;;;;;;;;;;24.80;47.70;;;;;;5016081;28;19947;-86
2022/07/08 07:51:57;;;;;;;;;;;24.80;47.60;;;;;;5016033;28;19980;-85
2022/07/08 07:54:24;;;;;;;;;;;24.80;47.60;;;;;;5016021;28;19932;-85
2022/07/08 07:56:50;;;;;;;;;;;24.80;47.50;;;;;;5015579;28;19993;-86
2022/07/08 07:59:18;;;;;;;;;;;24.80;47.50;;;;;;5015517;28;20344;-85
2022/07/08 08:01:45;;;;;;;;;;;24.80;47.50;;;;;;5015853;28;20016;-85
2022/07/08 08:04:12;;;;;;;;;;;24.80;47.40;;;;;;5016083;28;19972;-85
2022/07/08 08:06:38;;;;;;;;;;;24.80;47.30;;;;;;5016301;28;19968;-86
2022/07/08 08:09:05;;;;;;;;;;;24.80;47.20;;;;;;5016208;28;19926;-86
2022/07/08 08:11:32;;;;;;;;;;;24.80;47.20;;;;;;5017018;28;20326;-87
2022/07/08 08:13:58;;;;;;;;;;;24.80;47.10;;;;;;5015836;28;19925;-87
2022/07/08 08:16:26;;;;;;;;;;;24.80;47.10;;;;;;5015782;28;19932;-86
2022/07/08 08:18:53;;;;;;;;;;;24.80;47.00;;;;;;5015535;28;19925;-85
2022/07/08 08:21:20;;;;;;;;;;;24.80;47.00;;;;;;5018971;28;19957;-85
2022/07/08 08:23:46;;;;;;;;;;;24.70;46.90;;;;;;5034250;28;19972;-86
2022/07/08 08:26:13;;;;;;;;;;;24.80;46.90;;;;;;5033383;28;19926;-86
2022/07/08 08:28:40;;;;;;;;;;;24.80;46.80;;;;;;5033978;28;19933;-86
2022/07/08 08:31:06;;;;;;;;;;;24.80;46.70;;;;;;5031614;28;19993;-86
2022/07/08 08:33:34;;;;;;;;;;;24.80;46.70;;;;;;5020736;28;20008;-86
2022/07/08 08:36:01;;;;;;;;;;;24.80;46.70;;;;;;5017426;28;19932;-85
2022/07/08 08:38:28;;;;;;;;;;;24.80;46.60;;;;;;5016214;28;19979;-85
2022/07/08 08:40:57;;;;;;;;;;;24.80;46.50;;;;;;5015818;28;19984;-85
2022/07/08 08:43:24;;;;;;;;;;;24.80;46.50;;;;;;5015639;28;20356;-85
2022/07/08 08:45:51;;;;;;;;;;;24.80;46.40;;;;;;5015396;28;19926;-85
2022/07/08 08:48:22;;;;;;;;;;;24.80;46.30;;;;;;5015635;28;20039;-84
2022/07/08 08:50:55;;;;;;;;;;;24.70;46.20;;;;;;5015563;28;20024;-83
2022/07/08 08:53:24;;;;;;;;;;;24.80;46.20;;;;;;5022058;28;20033;-82
2022/07/08 08:55:51;;;;;;;;;;;24.80;46.10;;;;;;5018336;28;19964;-82
2022/07/08 08:58:18;;;;;;;;;;;24.70;46.00;;;;;;5020563;28;19926;-82
2022/07/08 09:00:45;;;;;;;;;;;24.80;46.10;;;;;;5023695;28;19957;-79
2022/07/08 09:03:12;;;;;;;;;;;24.80;46.10;;;;;;5022740;28;20017;-84
2022/07/08 09:05:38;;;;;;;;;;;24.70;46.10;;;;;;5021309;28;20381;-84
2022/07/08 09:08:06;;;;;;;;;;;24.80;46.10;;;;;;5021723;28;19925;-83
2022/07/08 09:10:34;;;;;;;;;;;24.70;46.10;;;;;;5019796;28;19972;-84
2022/07/08 09:13:01;;;;;;;;;;;24.70;46.00;;;;;;5021515;28;20105;-85
2022/07/08 09:15:35;;;;;;;;;;;24.80;46.20;;;;;;5020229;28;19928;-85
2022/07/08 09:18:02;;;;;;;;;;;24.80;46.10;;;;;;5021859;28;19981;-84
2022/07/08 09:20:37;;;;;;;;;;;24.70;46.00;;;;;;5028742;28;19925;-84
2022/07/08 09:23:06;;;;;;;;;;;24.70;46.00;;;;;;5027633;28;19949;-85
2022/07/08 09:25:35;;;;;;;;;;;24.80;46.10;;;;;;5030684;28;19932;-86
2022/07/08 09:28:03;;;;;;;;;;;24.80;46.00;;;;;;5031423;28;19926;-84
2022/07/08 09:30:30;;;;;;;;;;;24.80;45.90;;;;;;5033923;28;19947;-85
2022/07/08 09:32:58;;;;;;;;;;;24.80;45.80;;;;;;5033517;28;19967;-84
2022/07/08 09:35:37;;;;;;;;;;;24.80;45.70;;;;;;5028791;28;19949;-84
2022/07/08 09:38:04;;;;;;;;;;;24.80;45.70;;;;;;5027722;28;19926;-85
2022/07/08 09:40:32;;;;;;;;;;;24.80;45.60;;;;;;5028899;28;19948;-85
2022/07/08 09:43:02;;;;;;;;;;;24.80;45.60;;;;;;5031469;28;20065;-86
2022/07/08 09:45:30;;;;;;;;;;;24.80;45.60;;;;;;5031556;28;19948;-85
2022/07/08 09:48:07;;;;;;;;;;;24.80;45.50;;;;;;5033925;28;19925;-85
2022/07/08 09:50:38;;;;;;;;;;;24.80;45.40;;;;;;5032293;28;19948;-85
2022/07/08 09:53:11;;;;;;;;;;;24.80;45.40;;;;;;5030138;28;19925;-86
2022/07/08 09:55:39;;;;;;;;;;;24.80;45.40;;;;;;5031383;28;20009;-86
2022/07/08 09:58:07;;;;;;;;;;;24.80;45.30;;;;;;5035288;28;19930;-85
2022/07/08 10:00:35;;;;;;;;;;;24.80;45.30;;;;;;5033696;28;19925;-86
2022/07/08 10:03:03;;;;;;;;;;;24.80;45.30;;;;;;5033482;28;19925;-86
2022/07/08 10:05:30;;;;;;;;;;;24.80;45.20;;;;;;5034926;28;19925;-85
2022/07/08 10:07:57;;;;;;;;;;;24.80;45.20;;;;;;5036241;28;19981;-86
2022/07/08 10:10:24;;;;;;;;;;;24.80;45.10;;;;;;5033787;28;19948;-86
2022/07/08 10:12:52;;;;;;;;;;;24.80;45.10;;;;;;5025494;28;19971;-85
2022/07/08 10:15:21;;;;;;;;;;;24.80;45.10;;;;;;5033111;28;20385;-85
2022/07/08 10:17:49;;;;;;;;;;;24.80;45.00;;;;;;5030742;28;19926;-85
2022/07/08 10:20:16;;;;;;;;;;;24.80;45.00;;;;;;5029806;28;19932;-86
2022/07/08 10:22:45;;;;;;;;;;;24.80;45.00;;;;;;5030741;28;19957;-85
2022/07/08 10:25:12;;;;;;;;;;;24.80;44.90;;;;;;5028084;28;20420;-85
2022/07/08 10:27:39;;;;;;;;;;;24.90;45.00;;;;;;5031246;28;20300;-85
2022/07/08 10:30:15;;;;;;;;;;;24.90;45.00;;;;;;5025137;28;20346;-85
2022/07/08 10:32:45;;;;;;;;;;;24.80;44.90;;;;;;5017968;28;19925;-88
2022/07/08 10:35:13;;;;;;;;;;;24.90;44.90;;;;;;5017355;28;19972;-89
2022/07/08 10:37:46;;;;;;;;;;;24.80;44.80;;;;;;5017133;28;20381;-89
2022/07/08 10:40:13;;;;;;;;;;;24.80;44.80;;;;;;5017513;28;19926;-88
2022/07/08 10:42:43;;;;;;;;;;;24.90;44.80;;;;;;5017147;28;19925;-87
2022/07/08 10:45:15;;;;;;;;;;;24.90;44.80;;;;;;5017113;28;19925;-88
2022/07/08 10:47:43;;;;;;;;;;;24.90;44.70;;;;;;5017197;28;19965;-87
2022/07/08 10:50:10;;;;;;;;;;;24.90;44.70;;;;;;5016989;28;19932;-87
2022/07/08 10:52:40;;;;;;;;;;;24.90;44.70;;;;;;5017058;28;19932;-87
2022/07/08 10:55:08;;;;;;;;;;;24.90;44.60;;;;;;5016733;28;19972;-87
2022/07/08 10:57:36;;;;;;;;;;;24.90;44.60;;;;;;5016964;28;20293;-86
2022/07/08 11:00:05;;;;;;;;;;;24.90;44.60;;;;;;5018018;28;19948;-85
2022/07/08 11:02:32;;;;;;;;;;;24.90;44.50;;;;;;5020747;28;20359;-85
2022/07/08 11:05:00;;;;;;;;;;;24.90;44.50;;;;;;5020068;28;19948;-86
2022/07/08 11:07:28;;;;;;;;;;;24.90;44.50;;;;;;5022571;28;19960;-86
2022/07/08 11:09:57;;;;;;;;;;;24.90;44.40;;;;;;5020229;28;19957;-85
2022/07/08 11:12:25;;;;;;;;;;;24.90;44.40;;;;;;5021339;28;19925;-84
2022/07/08 11:14:53;;;;;;;;;;;24.90;44.40;;;;;;5018917;28;19926;-84
2022/07/08 11:17:20;;;;;;;;;;;24.90;44.30;;;;;;5018276;28;19946;-84
2022/07/08 11:19:48;;;;;;;;;;;24.90;44.30;;;;;;5019023;28;19925;-84
2022/07/08 11:22:16;;;;;;;;;;;24.90;44.30;;;;;;5018139;28;20359;-85
2022/07/08 11:24:44;;;;;;;;;;;24.90;44.30;;;;;;5019165;28;20396;-85
2022/07/08 11:27:11;;;;;;;;;;;24.90;44.20;;;;;;5018932;28;19972;-85
2022/07/08 11:29:38;;;;;;;;;;;24.90;44.20;;;;;;5019088;28;20012;-86
2022/07/08 11:32:06;;;;;;;;;;;24.90;44.20;;;;;;5019511;28;19925;-87
2022/07/08 11:34:32;;;;;;;;;;;24.90;44.10;;;;;;5018275;28;19967;-87
2022/07/08 11:37:00;;;;;;;;;;;24.90;44.10;;;;;;5016872;28;19932;-87
2022/07/08 11:39:28;;;;;;;;;;;24.90;44.00;;;;;;5015944;28;19925;-87
2022/07/08 11:41:55;;;;;;;;;;;24.90;44.00;;;;;;5017629;28;19925;-84
2022/07/08 11:44:23;;;;;;;;;;;24.90;43.90;;;;;;5018244;28;19980;-84
2022/07/08 11:46:51;;;;;;;;;;;24.90;43.90;;;;;;5018188;28;19956;-83
2022/07/08 11:49:19;;;;;;;;;;;24.90;43.80;;;;;;5018305;28;20001;-84
2022/07/08 11:51:46;;;;;;;;;;;24.90;43.70;;;;;;5015835;28;20377;-85
2022/07/08 11:54:13;;;;;;;;;;;24.90;43.70;;;;;;5016671;28;19949;-85
2022/07/08 11:56:41;;;;;;;;;;;24.90;43.60;;;;;;5016984;28;20443;-87
2022/07/08 11:59:08;;;;;;;;;;;24.90;43.60;;;;;;5016206;28;19925;-86
2022/07/08 12:01:35;;;;;;;;;;;24.90;43.50;;;;;;5016033;28;19976;-86
2022/07/08 12:04:04;;;;;;;;;;;24.90;43.40;;;;;;5015992;28;19932;-85
2022/07/08 12:06:31;;;;;;;;;;;24.90;43.40;;;;;;5015644;28;20357;-86
2022/07/08 12:08:57;;;;;;;;;;;24.90;43.20;;;;;;5016589;28;20269;-86
2022/07/08 12:11:25;;;;;;;;;;;24.90;43.20;;;;;;5015880;28;19925;-86
2022/07/08 12:13:54;;;;;;;;;;;24.90;43.10;;;;;;5017781;28;20017;-85
2022/07/08 12:16:28;;;;;;;;;;;24.80;43.00;;;;;;5016397;28;19925;-87
2022/07/08 12:18:55;;;;;;;;;;;24.90;42.90;;;;;;5015461;28;19933;-86
2022/07/08 12:21:22;;;;;;;;;;;24.80;42.80;;;;;;5015481;28;20024;-85
2022/07/08 12:23:55;;;;;;;;;;;24.80;42.70;;;;;;5016262;28;19929;-85
2022/07/08 12:26:22;;;;;;;;;;;24.80;42.70;;;;;;5015768;28;19926;-85
2022/07/08 12:28:49;;;;;;;;;;;24.80;42.60;;;;;;5015487;28;19972;-87
2022/07/08 12:31:30;;;;;;;;;;;24.90;42.50;;;;;;5016249;28;19929;-85
2022/07/08 12:34:01;;;;;;;;;;;24.90;42.50;;;;;;5015924;28;19976;-85
2022/07/08 12:36:28;;;;;;;;;;;24.90;42.40;;;;;;5014747;28;19929;-85
2022/07/08 12:38:55;;;;;;;;;;;24.90;42.30;;;;;;5015112;28;20008;-86
2022/07/08 12:41:24;;;;;;;;;;;24.90;42.20;;;;;;5014903;28;20016;-85
2022/07/08 12:43:51;;;;;;;;;;;24.90;42.20;;;;;;5014919;28;19971;-85
2022/07/08 12:46:18;;;;;;;;;;;24.90;42.10;;;;;;5014994;28;19969;-85
2022/07/08 12:48:44;;;;;;;;;;;24.90;42.00;;;;;;5014706;28;19969;-85
2022/07/08 12:51:12;;;;;;;;;;;24.90;41.90;;;;;;5014950;28;19968;-85
2022/07/08 12:53:39;;;;;;;;;;;24.90;41.90;;;;;;5015034;28;19933;-86
2022/07/08 12:56:06;;;;;;;;;;;24.80;41.70;;;;;;5014960;28;20004;-85
2022/07/08 12:58:34;;;;;;;;;;;24.90;41.70;;;;;;5014154;28;20171;-85
2022/07/08 13:01:01;;;;;;;;;;;24.80;41.50;;;;;;5015348;28;19972;-85
2022/07/08 13:03:28;;;;;;;;;;;24.90;41.40;;;;;;5014297;28;20361;-87
2022/07/08 13:05:54;;;;;;;;;;;24.90;41.20;;;;;;5014970;28;19925;-85
2022/07/08 13:08:22;;;;;;;;;;;24.90;41.20;;;;;;5014281;28;20296;-86
2022/07/08 13:10:49;;;;;;;;;;;24.80;41.10;;;;;;5014753;28;19941;-86
2022/07/08 13:13:16;;;;;;;;;;;24.90;41.20;;;;;;5014569;28;19925;-87
2022/07/08 13:15:43;;;;;;;;;;;24.90;41.20;;;;;;5014962;28;19925;-87
2022/07/08 13:18:10;;;;;;;;;;;24.90;41.20;;;;;;5014349;28;19980;-86
2022/07/08 13:20:36;;;;;;;;;;;24.90;41.20;;;;;;5016952;28;19932;-86
2022/07/08 13:23:03;;;;;;;;;;;24.90;41.20;;;;;;5017521;28;20016;-85
2022/07/08 13:25:31;;;;;;;;;;;24.90;41.20;;;;;;5015038;28;19929;-86
2022/07/08 13:27:58;;;;;;;;;;;24.90;41.20;;;;;;5015004;28;20020;-89
2022/07/08 13:30:24;;;;;;;;;;;24.90;41.20;;;;;;5014458;28;20012;-87
2022/07/08 13:32:51;;;;;;;;;;;24.90;41.00;;;;;;5014250;28;20471;-87
2022/07/08 13:35:18;;;;;;;;;;;24.90;41.00;;;;;;5016098;28;20424;-86
2022/07/08 13:37:45;;;;;;;;;;;24.90;40.90;;;;;;5015095;28;19968;-88
2022/07/08 13:40:12;;;;;;;;;;;24.90;40.80;;;;;;5014807;28;19925;-88
2022/07/08 13:42:40;;;;;;;;;;;24.90;40.70;;;;;;5018079;28;19936;-86
2022/07/08 13:45:07;;;;;;;;;;;24.90;40.60;;;;;;5018668;28;19925;-88
2022/07/08 13:47:34;;;;;;;;;;;25.00;40.60;;;;;;5018501;28;19925;-87
2022/07/08 13:50:01;;;;;;;;;;;24.90;40.80;;;;;;5018434;28;19932;-87
2022/07/08 13:52:27;;;;;;;;;;;24.90;40.40;;;;;;5018465;28;20020;-87
2022/07/08 13:54:54;;;;;;;;;;;25.00;40.40;;;;;;5018393;28;20377;-87
2022/07/08 13:57:21;;;;;;;;;;;25.00;40.30;;;;;;5018519;28;20017;-86
2022/07/08 13:59:49;;;;;;;;;;;24.90;40.70;;;;;;5019588;28;20389;-85
2022/07/08 14:02:17;;;;;;;;;;;25.00;40.20;;;;;;5019248;28;20012;-85
2022/07/08 14:04:44;;;;;;;;;;;24.90;40.00;;;;;;5019987;28;19975;-85
2022/07/08 14:07:10;;;;;;;;;;;25.00;40.00;;;;;;5028632;28;20029;-85
2022/07/08 14:09:37;;;;;;;;;;;25.00;39.90;;;;;;5037614;28;19964;-85
2022/07/08 14:12:05;;;;;;;;;;;24.90;39.70;;;;;;5037420;28;19986;-83
2022/07/08 14:14:31;;;;;;;;;;;25.00;39.70;;;;;;5036136;28;19926;-82
2022/07/08 14:17:00;;;;;;;;;;;25.00;39.70;;;;;;5026475;28;19926;-84
2022/07/08 14:19:27;;;;;;;;;;;25.00;39.60;;;;;;5026059;28;19965;-84
2022/07/08 14:21:54;;;;;;;;;;;25.00;39.50;;;;;;5025155;28;19925;-82
2022/07/08 14:24:21;;;;;;;;;;;25.00;39.50;;;;;;5024745;28;19932;-82
2022/07/08 14:26:48;;;;;;;;;;;25.00;39.40;;;;;;5023760;28;19957;-82
2022/07/08 14:29:14;;;;;;;;;;;25.00;39.30;;;;;;5024020;28;19925;-83
2022/07/08 14:31:41;;;;;;;;;;;25.00;39.30;;;;;;5025466;28;19988;-83
2022/07/08 14:34:09;;;;;;;;;;;25.00;39.20;;;;;;5025400;28;19925;-84
2022/07/08 14:36:36;;;;;;;;;;;25.00;39.20;;;;;;5023991;28;19989;-83
2022/07/08 14:39:03;;;;;;;;;;;24.90;39.10;;;;;;5024295;28;19949;-83
2022/07/08 14:41:30;;;;;;;;;;;25.00;39.10;;;;;;5024107;28;19935;-83
2022/07/08 14:43:56;;;;;;;;;;;24.90;38.90;;;;;;5023700;28;20012;-83
2022/07/08 14:46:23;;;;;;;;;;;24.90;38.90;;;;;;5024208;28;19985;-83
2022/07/08 14:48:50;;;;;;;;;;;24.90;38.80;;;;;;5022649;28;19976;-83
2022/07/08 14:51:18;;;;;;;;;;;24.90;38.70;;;;;;5020104;28;20289;-83
2022/07/08 14:53:44;;;;;;;;;;;24.90;38.70;;;;;;5018810;28;19933;-82
2022/07/08 14:56:11;;;;;;;;;;;24.90;38.60;;;;;;5020374;28;19988;-82
2022/07/08 14:58:38;;;;;;;;;;;24.90;38.60;;;;;;5019529;28;19925;-82
2022/07/08 15:01:05;;;;;;;;;;;24.90;38.50;;;;;;5019987;28;20304;-82
2022/07/08 15:03:31;;;;;;;;;;;24.90;38.50;;;;;;5020050;28;19932;-81
2022/07/08 15:05:58;;;;;;;;;;;24.90;38.40;;;;;;5019546;28;19988;-81
2022/07/08 15:08:28;;;;;;;;;;;24.90;38.40;;;;;;5019526;28;20004;-81
2022/07/08 15:10:55;;;;;;;;;;;24.90;38.30;;;;;;5019205;28;20281;-81
2022/07/08 15:13:26;;;;;;;;;;;24.90;38.20;;;;;;5020119;28;20012;-81
2022/07/08 15:15:52;;;;;;;;;;;24.90;38.20;;;;;;5019283;28;19983;-81
2022/07/08 15:18:19;;;;;;;;;;;24.90;38.20;;;;;;5018988;28;20296;-81
2022/07/08 15:20:46;;;;;;;;;;;24.90;38.10;;;;;;5019901;28;19932;-82
2022/07/08 15:23:12;;;;;;;;;;;24.90;38.10;;;;;;5020309;28;19972;-82
2022/07/08 15:25:40;;;;;;;;;;;24.90;38.00;;;;;;5019985;28;19949;-83
2022/07/08 15:28:07;;;;;;;;;;;24.90;38.00;;;;;;5020370;28;20012;-83
2022/07/08 15:30:34;;;;;;;;;;;24.90;37.90;;;;;;5021735;28;20020;-83
2022/07/08 15:33:00;;;;;;;;;;;24.90;37.90;;;;;;5021320;28;19936;-83
2022/07/08 15:35:27;;;;;;;;;;;24.90;37.90;;;;;;5020293;28;19932;-83
2022/07/08 15:37:54;;;;;;;;;;;24.80;37.70;;;;;;5020278;28;19926;-82
2022/07/08 15:40:21;;;;;;;;;;;24.80;37.70;;;;;;5021829;28;19937;-82
2022/07/08 15:42:49;;;;;;;;;;;24.90;37.70;;;;;;5020865;28;20472;-82
2022/07/08 15:45:16;;;;;;;;;;;24.80;37.60;;;;;;5021349;28;20307;-82
2022/07/08 15:47:42;;;;;;;;;;;24.90;37.70;;;;;;5022033;28;19926;-83
2022/07/08 15:50:09;;;;;;;;;;;24.90;37.60;;;;;;5021955;28;19976;-83
2022/07/08 15:52:36;;;;;;;;;;;24.90;37.60;;;;;;5022326;28;20008;-83
2022/07/08 15:55:03;;;;;;;;;;;24.90;37.50;;;;;;5021749;28;20004;-83
2022/07/08 15:57:34;;;;;;;;;;;24.90;37.50;;;;;;5022201;28;20430;-83
2022/07/08 16:00:04;;;;;;;;;;;24.80;37.40;;;;;;5018897;28;19996;-82
2022/07/08 16:02:30;;;;;;;;;;;24.80;37.30;;;;;;5018383;28;20033;-82
2022/07/08 16:04:57;;;;;;;;;;;24.80;37.30;;;;;;5018412;28;19976;-83
2022/07/08 16:07:24;;;;;;;;;;;24.80;37.30;;;;;;5019294;28;19972;-83
2022/07/08 16:09:50;;;;;;;;;;;24.80;37.20;;;;;;5018537;28;20020;-83
2022/07/08 16:12:17;;;;;;;;;;;24.80;37.20;;;;;;5018135;28;20024;-83
2022/07/08 16:14:45;;;;;;;;;;;24.80;37.10;;;;;;5017959;28;20020;-82
2022/07/08 16:17:14;;;;;;;;;;;24.80;37.10;;;;;;5017758;28;20012;-82
2022/07/08 16:19:40;;;;;;;;;;;24.80;37.10;;;;;;5016504;28;19925;-85
2022/07/08 16:22:07;;;;;;;;;;;24.80;37.10;;;;;;5015183;28;20385;-85
2022/07/08 16:24:34;;;;;;;;;;;24.80;37.00;;;;;;5015243;28;20388;-85
2022/07/08 16:27:00;;;;;;;;;;;24.80;37.00;;;;;;5015080;28;19969;-85
2022/07/08 16:29:27;;;;;;;;;;;24.80;37.00;;;;;;5015428;28;19971;-86
2022/07/08 16:31:54;;;;;;;;;;;24.80;37.00;;;;;;5015322;28;19937;-86
2022/07/08 16:34:22;;;;;;;;;;;24.80;37.00;;;;;;5015714;28;19980;-85
2022/07/08 16:36:48;;;;;;;;;;;24.80;36.90;;;;;;5014917;28;19925;-85
2022/07/08 16:39:21;;;;;;;;;;;24.80;36.90;;;;;;5015393;28;20008;-85
2022/07/08 16:41:48;;;;;;;;;;;24.80;36.90;;;;;;5016110;28;19976;-84
2022/07/08 16:44:14;;;;;;;;;;;24.80;36.80;;;;;;5015800;28;20440;-84
2022/07/08 16:46:41;;;;;;;;;;;24.80;36.80;;;;;;5015262;28;20296;-86
2022/07/08 16:49:08;;;;;;;;;;;24.80;36.80;;;;;;5015115;28;20023;-84
2022/07/08 16:51:36;;;;;;;;;;;24.80;36.70;;;;;;5015341;28;19933;-84
2022/07/08 16:54:03;;;;;;;;;;;24.70;36.60;;;;;;5015973;28;20028;-84
2022/07/08 16:56:30;;;;;;;;;;;24.70;36.60;;;;;;5015558;28;19926;-85
2022/07/08 16:58:56;;;;;;;;;;;24.70;36.50;;;;;;5015233;28;19925;-85
2022/07/08 17:01:23;;;;;;;;;;;24.70;36.50;;;;;;5015182;28;19936;-85
2022/07/08 17:03:52;;;;;;;;;;;24.70;36.50;;;;;;5014834;28;19936;-85
2022/07/08 17:06:19;;;;;;;;;;;24.70;36.40;;;;;;5014847;28;20277;-85
2022/07/08 17:08:47;;;;;;;;;;;24.70;36.40;;;;;;5014915;28;20025;-85
2022/07/08 17:11:14;;;;;;;;;;;24.70;36.30;;;;;;5015136;28;19968;-85
2022/07/08 17:13:40;;;;;;;;;;;24.70;36.30;;;;;;5017239;28;19932;-85
2022/07/08 17:16:07;;;;;;;;;;;24.70;36.20;;;;;;5016011;28;19925;-86
2022/07/08 17:18:34;;;;;;;;;;;24.70;36.20;;;;;;5015390;28;20024;-86
2022/07/08 17:21:01;;;;;;;;;;;24.70;36.00;;;;;;5016610;28;19999;-86
2022/07/08 17:23:27;;;;;;;;;;;24.70;36.00;;;;;;5016105;28;20369;-88
2022/07/08 17:25:56;;;;;;;;;;;24.70;35.90;;;;;;5016545;28;20012;-85
2022/07/08 17:28:23;;;;;;;;;;;24.70;35.90;;;;;;5018404;28;20040;-86
2022/07/08 17:30:49;;;;;;;;;;;24.70;35.90;;;;;;5016609;28;20012;-87
2022/07/08 17:33:16;;;;;;;;;;;24.70;35.90;;;;;;5016988;28;20016;-86
2022/07/08 17:35:43;;;;;;;;;;;24.70;35.90;;;;;;5016667;28;19936;-86
2022/07/08 17:38:09;;;;;;;;;;;24.70;35.90;;;;;;5015439;28;19948;-87
2022/07/08 17:40:36;;;;;;;;;;;24.70;36.00;;;;;;5016023;28;19932;-87
2022/07/08 17:43:04;;;;;;;;;;;24.70;36.00;;;;;;5018174;28;20336;-86
2022/07/08 17:45:31;;;;;;;;;;;24.60;35.90;;;;;;5017131;28;20004;-86
2022/07/08 17:47:58;;;;;;;;;;;24.60;35.80;;;;;;5017348;28;20024;-86
2022/07/08 17:50:24;;;;;;;;;;;24.60;35.90;;;;;;5016334;28;20008;-86
2022/07/08 17:52:51;;;;;;;;;;;24.60;36.50;;;;;;5017048;28;19926;-86
2022/07/08 17:55:18;;;;;;;;;;;24.60;35.90;;;;;;5017263;28;19968;-86
2022/07/08 17:57:44;;;;;;;;;;;24.60;35.80;;;;;;5015939;28;20021;-86
2022/07/08 18:00:14;;;;;;;;;;;24.60;35.80;;;;;;5015028;28;19925;-85
2022/07/08 18:02:41;;;;;;;;;;;24.60;35.90;;;;;;5015104;28;20288;-85
2022/07/08 18:05:08;;;;;;;;;;;24.60;35.80;;;;;;5015659;28;19957;-86
2022/07/08 18:07:35;;;;;;;;;;;24.60;35.90;;;;;;5015996;28;19972;-85
2022/07/08 18:10:02;;;;;;;;;;;24.60;35.70;;;;;;5015749;28;19960;-85
2022/07/08 18:12:28;;;;;;;;;;;24.60;35.70;;;;;;5016650;28;19925;-85
2022/07/08 18:14:55;;;;;;;;;;;24.60;35.70;;;;;;5015224;28;19944;-85
2022/07/08 18:17:23;;;;;;;;;;;24.60;35.70;;;;;;5015669;28;19967;-85
2022/07/08 18:19:50;;;;;;;;;;;24.60;35.60;;;;;;5015549;28;19980;-80
2022/07/08 18:22:16;;;;;;;;;;;24.60;35.70;;;;;;5016232;28;19992;-78
2022/07/08 18:24:43;;;;;;;;;;;24.60;35.70;;;;;;5014605;28;20377;-78
2022/07/08 18:27:09;;;;;;;;;;;24.60;35.70;;;;;;5015297;28;20008;-78
2022/07/08 18:29:36;;;;;;;;;;;24.60;35.70;;;;;;5018064;28;20008;-78
2022/07/08 18:32:03;;;;;;;;;;;24.60;35.70;;;;;;5017934;28;20015;-78
2022/07/08 18:34:32;;;;;;;;;;;24.60;35.70;;;;;;5017408;28;19926;-78
2022/07/08 18:36:58;;;;;;;;;;;24.60;35.70;;;;;;5016767;28;20020;-78